NSZ2828 EFHK-LYTV
Flight info
| Callsign | NSZ2828 |
|---|---|
| Flight time | N/A |
| Altitude | 38000 |
| Route | KOIVU4N KOIVU Y123 LARTI DCT ORTAX DCT LUTAL P870 BERIL/N0442F370 DCT BOKSU/N0442F380 M857 PODAN DCT KEKED DCT UVERA DCT PARAK/N0439F390 DCT KOSIV/N0436F380 DCT YUYUH DCT POD POD2D |
| Aircraft | B38M/M-SDE1FGHILORVWXY/HB1 |
Departure
| Time | 2026-05-06 10:33 |
|---|---|
| Airport | Helsinki Vantaa Airport (EFHK) |
Arrival
| Time | N/A |
|---|---|
| Airport | Tivat Airport (LYTV) |
| Time | Latitude | Longitude | Altitude | Speed | Heading |
|---|---|---|---|---|---|
| 2026-05-06 10:12 | 60.31505 | 24.95725 | 169 ft | 0 kts | 137° |
| 2026-05-06 10:25 | 60.31506 | 24.95724 | 169 ft | 2 kts | 137° |
| 2026-05-06 10:25 | 60.31524 | 24.95690 | 169 ft | 4 kts | 137° |
| 2026-05-06 10:25 | 60.31544 | 24.95653 | 169 ft | 4 kts | 137° |
| 2026-05-06 10:26 | 60.31559 | 24.95623 | 169 ft | 4 kts | 121° |
| 2026-05-06 10:26 | 60.31558 | 24.95588 | 169 ft | 4 kts | 50° |
| 2026-05-06 10:26 | 60.31541 | 24.95550 | 169 ft | 4 kts | 47° |
| 2026-05-06 10:26 | 60.31535 | 24.95537 | 169 ft | 1 kts | 47° |
| 2026-05-06 10:29 | 60.31547 | 24.95564 | 169 ft | 7 kts | 47° |
| 2026-05-06 10:29 | 60.31605 | 24.95673 | 169 ft | 14 kts | 18° |
| 2026-05-06 10:29 | 60.31686 | 24.95570 | 170 ft | 15 kts | 317° |
| 2026-05-06 10:30 | 60.31766 | 24.95599 | 173 ft | 13 kts | 47° |
| 2026-05-06 10:30 | 60.31835 | 24.95752 | 172 ft | 16 kts | 47° |
| 2026-05-06 10:30 | 60.31917 | 24.95929 | 172 ft | 18 kts | 46° |
| 2026-05-06 10:30 | 60.31990 | 24.95917 | 175 ft | 12 kts | 316° |
| 2026-05-06 10:31 | 60.32069 | 24.95768 | 176 ft | 21 kts | 318° |
| 2026-05-06 10:31 | 60.32205 | 24.95518 | 176 ft | 29 kts | 317° |
| 2026-05-06 10:31 | 60.32363 | 24.95259 | 180 ft | 30 kts | 338° |
| 2026-05-06 10:31 | 60.32559 | 24.95131 | 183 ft | 29 kts | 342° |
| 2026-05-06 10:32 | 60.32758 | 24.95002 | 180 ft | 31 kts | 342° |
| 2026-05-06 10:32 | 60.32953 | 24.94802 | 180 ft | 32 kts | 317° |
| 2026-05-06 10:32 | 60.33104 | 24.94521 | 191 ft | 19 kts | 316° |
| 2026-05-06 10:32 | 60.33090 | 24.94335 | 196 ft | 14 kts | 228° |
| 2026-05-06 10:33 | 60.33006 | 24.94150 | 195 ft | 26 kts | 227° |
| 2026-05-06 10:33 | 60.32716 | 24.93514 | 183 ft | 100 kts | 227° |
| 2026-05-06 10:33 | 60.32092 | 24.92137 | 262 ft | 156 kts | 232° |
| 2026-05-06 10:33 | 60.31315 | 24.90440 | 1213 ft | 164 kts | 230° |
| 2026-05-06 10:34 | 60.30601 | 24.88741 | 2399 ft | 159 kts | 239° |
| 2026-05-06 10:34 | 60.29969 | 24.86846 | 3197 ft | 170 kts | 240° |
| 2026-05-06 10:34 | 60.29288 | 24.84764 | 3911 ft | 184 kts | 240° |
| 2026-05-06 10:34 | 60.28550 | 24.82513 | 4648 ft | 203 kts | 239° |
| 2026-05-06 10:35 | 60.27725 | 24.80002 | 5328 ft | 224 kts | 239° |
| 2026-05-06 10:35 | 60.26854 | 24.77256 | 6148 ft | 236 kts | 245° |
| 2026-05-06 10:35 | 60.26225 | 24.74232 | 7179 ft | 239 kts | 250° |
| 2026-05-06 10:35 | 60.25604 | 24.71050 | 7999 ft | 252 kts | 250° |
| 2026-05-06 10:36 | 60.24955 | 24.67739 | 9108 ft | 250 kts | 249° |
| 2026-05-06 10:36 | 60.24041 | 24.64817 | 10218 ft | 253 kts | 227° |
| 2026-05-06 10:36 | 60.22482 | 24.62907 | 10981 ft | 275 kts | 204° |
| 2026-05-06 10:36 | 60.20514 | 24.62503 | 11593 ft | 303 kts | 183° |
| 2026-05-06 10:37 | 60.18356 | 24.62837 | 12217 ft | 315 kts | 185° |
| 2026-05-06 10:37 | 60.16138 | 24.63112 | 13050 ft | 318 kts | 185° |
| 2026-05-06 10:37 | 60.13937 | 24.63372 | 13898 ft | 322 kts | 186° |
| 2026-05-06 10:37 | 60.11719 | 24.63185 | 14575 ft | 313 kts | 200° |
| 2026-05-06 10:38 | 60.09573 | 24.62261 | 15296 ft | 317 kts | 200° |
| 2026-05-06 10:38 | 60.07426 | 24.61439 | 16005 ft | 321 kts | 199° |
| 2026-05-06 10:38 | 60.05213 | 24.60631 | 16698 ft | 324 kts | 199° |
| 2026-05-06 10:38 | 60.02976 | 24.59838 | 17402 ft | 328 kts | 199° |
| 2026-05-06 10:39 | 60.00711 | 24.59052 | 18081 ft | 331 kts | 199° |
| 2026-05-06 10:39 | 59.98431 | 24.58268 | 18672 ft | 334 kts | 199° |
| 2026-05-06 10:39 | 59.96129 | 24.57483 | 19264 ft | 336 kts | 199° |
| 2026-05-06 10:39 | 59.93842 | 24.56704 | 19838 ft | 338 kts | 199° |
| 2026-05-06 10:40 | 59.91515 | 24.55914 | 20403 ft | 340 kts | 199° |
| 2026-05-06 10:40 | 59.89164 | 24.55117 | 20949 ft | 342 kts | 199° |
| 2026-05-06 10:40 | 59.86806 | 24.54319 | 21504 ft | 345 kts | 199° |
| 2026-05-06 10:40 | 59.84429 | 24.53516 | 22041 ft | 347 kts | 199° |
| 2026-05-06 10:41 | 59.82054 | 24.52714 | 22592 ft | 350 kts | 199° |
| 2026-05-06 10:41 | 59.79638 | 24.51900 | 23118 ft | 352 kts | 199° |
| 2026-05-06 10:41 | 59.77220 | 24.51087 | 23648 ft | 355 kts | 199° |
| 2026-05-06 10:41 | 59.74794 | 24.50271 | 24088 ft | 357 kts | 199° |
| 2026-05-06 10:42 | 59.72335 | 24.49447 | 24533 ft | 359 kts | 199° |
| 2026-05-06 10:42 | 59.69841 | 24.48611 | 24986 ft | 362 kts | 199° |
| 2026-05-06 10:42 | 59.67356 | 24.47780 | 25429 ft | 364 kts | 199° |
| 2026-05-06 10:42 | 59.64872 | 24.46950 | 25850 ft | 367 kts | 199° |
| 2026-05-06 10:43 | 59.62341 | 24.46106 | 26283 ft | 369 kts | 199° |
| 2026-05-06 10:43 | 59.59789 | 24.45256 | 26726 ft | 371 kts | 199° |
| 2026-05-06 10:43 | 59.57258 | 24.44415 | 27112 ft | 374 kts | 199° |
| 2026-05-06 10:44 | 59.52090 | 24.42700 | 27921 ft | 379 kts | 199° |
| 2026-05-06 10:44 | 59.49472 | 24.41834 | 28301 ft | 381 kts | 199° |
| 2026-05-06 10:44 | 59.46861 | 24.40971 | 28680 ft | 384 kts | 199° |
| 2026-05-06 10:44 | 59.44194 | 24.40091 | 29067 ft | 386 kts | 199° |
| 2026-05-06 10:45 | 59.41553 | 24.39221 | 29438 ft | 389 kts | 199° |
| 2026-05-06 10:45 | 59.38872 | 24.38340 | 29799 ft | 391 kts | 199° |
| 2026-05-06 10:45 | 59.36189 | 24.37459 | 30143 ft | 393 kts | 199° |
| 2026-05-06 10:45 | 59.33465 | 24.36566 | 30449 ft | 396 kts | 199° |
| 2026-05-06 10:46 | 59.30753 | 24.35678 | 30735 ft | 398 kts | 199° |
| 2026-05-06 10:46 | 59.28001 | 24.34779 | 31025 ft | 400 kts | 198° |
| 2026-05-06 10:46 | 59.25258 | 24.33884 | 31305 ft | 403 kts | 198° |
| 2026-05-06 10:46 | 59.22489 | 24.32982 | 31585 ft | 405 kts | 198° |
| 2026-05-06 10:47 | 59.19712 | 24.32080 | 31859 ft | 407 kts | 198° |
| 2026-05-06 10:47 | 59.16899 | 24.31166 | 32142 ft | 409 kts | 198° |
| 2026-05-06 10:47 | 59.14093 | 24.30257 | 32409 ft | 411 kts | 198° |
| 2026-05-06 10:47 | 59.11261 | 24.29340 | 32678 ft | 413 kts | 198° |
| 2026-05-06 10:48 | 59.08418 | 24.28423 | 32980 ft | 414 kts | 198° |
| 2026-05-06 10:48 | 59.05582 | 24.27508 | 33374 ft | 413 kts | 198° |
| 2026-05-06 10:48 | 59.02767 | 24.26601 | 33743 ft | 413 kts | 197° |
| 2026-05-06 10:48 | 58.99913 | 24.25684 | 34088 ft | 412 kts | 197° |
| 2026-05-06 10:49 | 58.97082 | 24.24776 | 34364 ft | 412 kts | 197° |
| 2026-05-06 10:49 | 58.94250 | 24.23868 | 34593 ft | 414 kts | 197° |
| 2026-05-06 10:49 | 58.91424 | 24.22965 | 34834 ft | 415 kts | 197° |
| 2026-05-06 10:49 | 58.88589 | 24.22059 | 35083 ft | 415 kts | 196° |
| 2026-05-06 10:50 | 58.85720 | 24.21145 | 35321 ft | 416 kts | 196° |
| 2026-05-06 10:50 | 58.82876 | 24.20240 | 35560 ft | 417 kts | 196° |
| 2026-05-06 10:50 | 58.79984 | 24.19321 | 35804 ft | 418 kts | 196° |
| 2026-05-06 10:50 | 58.77124 | 24.18414 | 36042 ft | 419 kts | 195° |
| 2026-05-06 10:51 | 58.74268 | 24.17509 | 36275 ft | 419 kts | 195° |
| 2026-05-06 10:51 | 58.71394 | 24.16601 | 36497 ft | 420 kts | 195° |
| 2026-05-06 10:51 | 58.68507 | 24.15690 | 36726 ft | 421 kts | 195° |
| 2026-05-06 10:51 | 58.65614 | 24.14778 | 36958 ft | 421 kts | 195° |
| 2026-05-06 10:52 | 58.62693 | 24.13860 | 37179 ft | 422 kts | 195° |
| 2026-05-06 10:52 | 58.59810 | 24.12955 | 37378 ft | 423 kts | 195° |
| 2026-05-06 10:52 | 58.56899 | 24.12042 | 37591 ft | 423 kts | 195° |
| 2026-05-06 10:52 | 58.53998 | 24.11134 | 37798 ft | 423 kts | 195° |
| 2026-05-06 10:53 | 58.51102 | 24.10230 | 37970 ft | 424 kts | 195° |
| 2026-05-06 10:53 | 58.45269 | 24.08412 | 38015 ft | 423 kts | 195° |
| 2026-05-06 10:54 | 58.39437 | 24.06601 | 38014 ft | 423 kts | 194° |
| 2026-05-06 10:54 | 58.33655 | 24.04811 | 38015 ft | 424 kts | 194° |
| 2026-05-06 10:55 | 58.27845 | 24.03019 | 38017 ft | 424 kts | 194° |
| 2026-05-06 10:55 | 58.22016 | 24.01227 | 38015 ft | 424 kts | 194° |
| 2026-05-06 10:56 | 58.16158 | 23.99432 | 38025 ft | 424 kts | 194° |
| 2026-05-06 10:56 | 58.10336 | 23.97654 | 38021 ft | 424 kts | 194° |
| 2026-05-06 10:57 | 58.04527 | 23.95886 | 38030 ft | 424 kts | 194° |
| 2026-05-06 10:57 | 57.98715 | 23.94122 | 38025 ft | 424 kts | 194° |
| 2026-05-06 10:58 | 57.92860 | 23.92352 | 38022 ft | 424 kts | 194° |
| 2026-05-06 10:58 | 57.87064 | 23.90486 | 38025 ft | 424 kts | 195° |
| 2026-05-06 10:59 | 57.81262 | 23.88573 | 38028 ft | 424 kts | 195° |
| 2026-05-06 10:59 | 57.76414 | 23.86984 | 38021 ft | 424 kts | 195° |
| 2026-05-06 11:00 | 57.69639 | 23.84765 | 38020 ft | 424 kts | 195° |
| 2026-05-06 11:00 | 57.64771 | 23.83172 | 38020 ft | 424 kts | 195° |
| 2026-05-06 11:01 | 57.58960 | 23.81278 | 38016 ft | 423 kts | 195° |
| 2026-05-06 11:01 | 57.53183 | 23.79399 | 38018 ft | 423 kts | 195° |
| 2026-05-06 11:02 | 57.47377 | 23.77518 | 38021 ft | 423 kts | 195° |
| 2026-05-06 11:02 | 57.41595 | 23.75650 | 38015 ft | 423 kts | 195° |
| 2026-05-06 11:03 | 57.35776 | 23.73776 | 38015 ft | 423 kts | 195° |
| 2026-05-06 11:03 | 57.30007 | 23.71923 | 38004 ft | 422 kts | 195° |
| 2026-05-06 11:04 | 57.24218 | 23.70071 | 37999 ft | 422 kts | 195° |
| 2026-05-06 11:04 | 57.18428 | 23.68223 | 37999 ft | 421 kts | 195° |
| 2026-05-06 11:05 | 57.12650 | 23.66385 | 37987 ft | 421 kts | 195° |
| 2026-05-06 11:05 | 57.06884 | 23.64557 | 37979 ft | 420 kts | 195° |
| 2026-05-06 11:06 | 57.01113 | 23.62733 | 37976 ft | 420 kts | 195° |
| 2026-05-06 11:06 | 56.95377 | 23.60927 | 37976 ft | 420 kts | 195° |
| 2026-05-06 11:07 | 56.89629 | 23.59121 | 37973 ft | 419 kts | 195° |
| 2026-05-06 11:07 | 56.83865 | 23.57317 | 37974 ft | 419 kts | 195° |
| 2026-05-06 11:08 | 56.78120 | 23.55524 | 37970 ft | 418 kts | 195° |
| 2026-05-06 11:08 | 56.72373 | 23.53736 | 37968 ft | 418 kts | 195° |
| 2026-05-06 11:09 | 56.66636 | 23.51956 | 37962 ft | 418 kts | 195° |
| 2026-05-06 11:09 | 56.60928 | 23.50191 | 37961 ft | 418 kts | 195° |
| 2026-05-06 11:10 | 56.55178 | 23.48419 | 37958 ft | 418 kts | 195° |
| 2026-05-06 11:10 | 56.49473 | 23.46666 | 37951 ft | 418 kts | 195° |
| 2026-05-06 11:11 | 56.43733 | 23.44906 | 37947 ft | 418 kts | 195° |
| 2026-05-06 11:11 | 56.38011 | 23.43157 | 37944 ft | 418 kts | 195° |
| 2026-05-06 11:12 | 56.32223 | 23.41728 | 37942 ft | 419 kts | 193° |
| 2026-05-06 11:12 | 56.26455 | 23.40336 | 37942 ft | 419 kts | 193° |
| 2026-05-06 11:13 | 56.20665 | 23.38935 | 37934 ft | 419 kts | 193° |
| 2026-05-06 11:13 | 56.14902 | 23.37545 | 37932 ft | 419 kts | 193° |
| 2026-05-06 11:14 | 56.09097 | 23.36149 | 37929 ft | 419 kts | 193° |
| 2026-05-06 11:14 | 56.03335 | 23.34767 | 37926 ft | 420 kts | 193° |
| 2026-05-06 11:15 | 55.97532 | 23.33380 | 37930 ft | 420 kts | 193° |
| 2026-05-06 11:15 | 55.91738 | 23.31999 | 37925 ft | 421 kts | 193° |
| 2026-05-06 11:16 | 55.85922 | 23.30617 | 37921 ft | 421 kts | 193° |
| 2026-05-06 11:16 | 55.80136 | 23.29246 | 37918 ft | 422 kts | 193° |
| 2026-05-06 11:17 | 55.74295 | 23.27866 | 37916 ft | 422 kts | 193° |
| 2026-05-06 11:17 | 55.68492 | 23.26499 | 37925 ft | 423 kts | 192° |
| 2026-05-06 11:18 | 55.62669 | 23.25132 | 37915 ft | 423 kts | 192° |
| 2026-05-06 11:18 | 55.56826 | 23.23764 | 37896 ft | 423 kts | 192° |
| 2026-05-06 11:19 | 55.50961 | 23.22395 | 37906 ft | 424 kts | 192° |
| 2026-05-06 11:19 | 55.45117 | 23.21036 | 37903 ft | 424 kts | 192° |
| 2026-05-06 11:20 | 55.39271 | 23.19679 | 37894 ft | 423 kts | 192° |
| 2026-05-06 11:20 | 55.33448 | 23.18332 | 37886 ft | 423 kts | 192° |
| 2026-05-06 11:21 | 55.27600 | 23.16984 | 37884 ft | 423 kts | 192° |
| 2026-05-06 11:21 | 55.21792 | 23.15648 | 37884 ft | 423 kts | 192° |
| 2026-05-06 11:22 | 55.15939 | 23.14306 | 37875 ft | 422 kts | 192° |
| 2026-05-06 11:22 | 55.10105 | 23.12973 | 37875 ft | 422 kts | 192° |
| 2026-05-06 11:23 | 55.04301 | 23.11650 | 37872 ft | 422 kts | 192° |
| 2026-05-06 11:23 | 54.98478 | 23.10327 | 37870 ft | 422 kts | 192° |
| 2026-05-06 11:24 | 54.92684 | 23.09014 | 37864 ft | 422 kts | 192° |
| 2026-05-06 11:24 | 54.86865 | 23.07699 | 37865 ft | 422 kts | 192° |
| 2026-05-06 11:25 | 54.81019 | 23.06382 | 37862 ft | 422 kts | 192° |
| 2026-05-06 11:25 | 54.75202 | 23.05076 | 37860 ft | 421 kts | 192° |
| 2026-05-06 11:26 | 54.69400 | 23.03776 | 37851 ft | 421 kts | 192° |
| 2026-05-06 11:26 | 54.63581 | 23.02477 | 37846 ft | 421 kts | 192° |
| 2026-05-06 11:27 | 54.57793 | 23.01188 | 37846 ft | 421 kts | 192° |
| 2026-05-06 11:27 | 54.51970 | 22.99895 | 37852 ft | 421 kts | 192° |
| 2026-05-06 11:28 | 54.46133 | 22.98603 | 37844 ft | 421 kts | 192° |
| 2026-05-06 11:28 | 54.40341 | 22.97324 | 37835 ft | 421 kts | 192° |
| 2026-05-06 11:29 | 54.34549 | 22.96049 | 37831 ft | 421 kts | 191° |
| 2026-05-06 11:29 | 54.28737 | 22.94773 | 37830 ft | 421 kts | 191° |
| 2026-05-06 11:30 | 54.22935 | 22.93502 | 37819 ft | 421 kts | 191° |
| 2026-05-06 11:30 | 54.17118 | 22.92232 | 37816 ft | 421 kts | 191° |
| 2026-05-06 11:31 | 54.11304 | 22.90966 | 37814 ft | 420 kts | 191° |
| 2026-05-06 11:31 | 54.05575 | 22.89376 | 37815 ft | 412 kts | 196° |
| 2026-05-06 11:32 | 53.99983 | 22.87197 | 37803 ft | 414 kts | 195° |
| 2026-05-06 11:32 | 53.94368 | 22.85096 | 37796 ft | 414 kts | 195° |
| 2026-05-06 11:33 | 53.88733 | 22.83006 | 37796 ft | 414 kts | 195° |
| 2026-05-06 11:33 | 53.83132 | 22.80934 | 37791 ft | 414 kts | 195° |
| 2026-05-06 11:34 | 53.77491 | 22.78843 | 37788 ft | 414 kts | 195° |
| 2026-05-06 11:34 | 53.71879 | 22.76727 | 37784 ft | 414 kts | 195° |
| 2026-05-06 11:35 | 53.66241 | 22.74610 | 37778 ft | 414 kts | 195° |
| 2026-05-06 11:35 | 53.60618 | 22.72504 | 37774 ft | 414 kts | 195° |
| 2026-05-06 11:36 | 53.55012 | 22.70412 | 37770 ft | 415 kts | 195° |
| 2026-05-06 11:36 | 53.49355 | 22.68305 | 37770 ft | 415 kts | 195° |
| 2026-05-06 11:37 | 53.43740 | 22.66219 | 37774 ft | 415 kts | 195° |
| 2026-05-06 11:37 | 53.38095 | 22.64128 | 37762 ft | 415 kts | 195° |
| 2026-05-06 11:38 | 53.32444 | 22.62042 | 37764 ft | 415 kts | 195° |
| 2026-05-06 11:38 | 53.26821 | 22.59969 | 37762 ft | 415 kts | 195° |
| 2026-05-06 11:39 | 53.21197 | 22.57903 | 37766 ft | 415 kts | 195° |
| 2026-05-06 11:39 | 53.15526 | 22.55824 | 37766 ft | 415 kts | 194° |
| 2026-05-06 11:40 | 53.09921 | 22.53775 | 37762 ft | 415 kts | 194° |
| 2026-05-06 11:40 | 53.04245 | 22.51706 | 37764 ft | 415 kts | 194° |
| 2026-05-06 11:41 | 52.98601 | 22.49653 | 37760 ft | 415 kts | 194° |
| 2026-05-06 11:41 | 52.92966 | 22.47610 | 37758 ft | 415 kts | 194° |
| 2026-05-06 11:42 | 52.87326 | 22.45570 | 37764 ft | 415 kts | 194° |
| 2026-05-06 11:42 | 52.81675 | 22.43531 | 37762 ft | 415 kts | 194° |
| 2026-05-06 11:43 | 52.76046 | 22.41506 | 37760 ft | 415 kts | 194° |
| 2026-05-06 11:43 | 52.70379 | 22.39474 | 37761 ft | 415 kts | 194° |
| 2026-05-06 11:44 | 52.61917 | 22.36449 | 37761 ft | 416 kts | 194° |
| 2026-05-06 11:44 | 52.57195 | 22.34766 | 37762 ft | 416 kts | 194° |
| 2026-05-06 11:45 | 52.51552 | 22.32761 | 37763 ft | 416 kts | 194° |
| 2026-05-06 11:45 | 52.45874 | 22.30747 | 37765 ft | 416 kts | 194° |
| 2026-05-06 11:46 | 52.40237 | 22.28755 | 37766 ft | 416 kts | 194° |
| 2026-05-06 11:46 | 52.34561 | 22.26754 | 37762 ft | 417 kts | 194° |
| 2026-05-06 11:47 | 52.28896 | 22.24762 | 37764 ft | 417 kts | 194° |
| 2026-05-06 11:47 | 52.23229 | 22.22775 | 37767 ft | 417 kts | 194° |
| 2026-05-06 11:48 | 52.17572 | 22.20796 | 37765 ft | 417 kts | 194° |
| 2026-05-06 11:48 | 52.11855 | 22.19048 | 37767 ft | 418 kts | 193° |
| 2026-05-06 11:49 | 52.06144 | 22.17348 | 37764 ft | 418 kts | 193° |
| 2026-05-06 11:49 | 52.00417 | 22.15640 | 37764 ft | 418 kts | 193° |
| 2026-05-06 11:50 | 51.94707 | 22.13942 | 37768 ft | 418 kts | 193° |
| 2026-05-06 11:50 | 51.88967 | 22.12239 | 37770 ft | 418 kts | 193° |
| 2026-05-06 11:51 | 51.83261 | 22.10550 | 37772 ft | 419 kts | 192° |
| 2026-05-06 11:51 | 51.77518 | 22.08869 | 37771 ft | 419 kts | 192° |
| 2026-05-06 11:52 | 51.71776 | 22.07196 | 37774 ft | 419 kts | 192° |
| 2026-05-06 11:52 | 51.66050 | 22.05532 | 37777 ft | 420 kts | 192° |
| 2026-05-06 11:53 | 51.60316 | 22.03867 | 37778 ft | 420 kts | 192° |
| 2026-05-06 11:53 | 51.54551 | 22.02194 | 37782 ft | 420 kts | 192° |
| 2026-05-06 11:54 | 51.48792 | 22.00528 | 37786 ft | 420 kts | 192° |
| 2026-05-06 11:54 | 51.43024 | 21.98864 | 37777 ft | 421 kts | 192° |
| 2026-05-06 11:55 | 51.37264 | 21.97257 | 37773 ft | 421 kts | 192° |
| 2026-05-06 11:55 | 51.31488 | 21.95651 | 37785 ft | 422 kts | 192° |
| 2026-05-06 11:56 | 51.25717 | 21.94049 | 37787 ft | 422 kts | 192° |
| 2026-05-06 11:56 | 51.19930 | 21.92447 | 37786 ft | 422 kts | 192° |
| 2026-05-06 11:57 | 51.14142 | 21.90840 | 37799 ft | 423 kts | 192° |
| 2026-05-06 11:57 | 51.08335 | 21.89216 | 37790 ft | 423 kts | 192° |
| 2026-05-06 11:58 | 51.02563 | 21.87601 | 37796 ft | 423 kts | 192° |
| 2026-05-06 11:58 | 50.96754 | 21.85977 | 37793 ft | 424 kts | 192° |
| 2026-05-06 11:59 | 50.90949 | 21.84357 | 37802 ft | 424 kts | 192° |
| 2026-05-06 11:59 | 50.85133 | 21.82739 | 37809 ft | 424 kts | 192° |
| 2026-05-06 12:00 | 50.79304 | 21.81121 | 37802 ft | 425 kts | 192° |
| 2026-05-06 12:00 | 50.73470 | 21.79505 | 37807 ft | 425 kts | 192° |
| 2026-05-06 12:01 | 50.67674 | 21.77905 | 37803 ft | 425 kts | 192° |
| 2026-05-06 12:01 | 50.61830 | 21.76244 | 37802 ft | 424 kts | 197° |
| 2026-05-06 12:02 | 50.56159 | 21.73808 | 37810 ft | 424 kts | 197° |
| 2026-05-06 12:02 | 50.50458 | 21.71458 | 37813 ft | 424 kts | 197° |
| 2026-05-06 12:03 | 50.44718 | 21.69117 | 37816 ft | 425 kts | 197° |
| 2026-05-06 12:03 | 50.38986 | 21.66786 | 37818 ft | 424 kts | 197° |
| 2026-05-06 12:04 | 50.33288 | 21.64476 | 37835 ft | 426 kts | 197° |
| 2026-05-06 12:04 | 50.30428 | 21.63319 | 38066 ft | 426 kts | 197° |
| 2026-05-06 12:04 | 50.27543 | 21.62153 | 38305 ft | 426 kts | 197° |
| 2026-05-06 12:05 | 50.24708 | 21.61009 | 38505 ft | 426 kts | 197° |
| 2026-05-06 12:05 | 50.21808 | 21.59839 | 38676 ft | 427 kts | 197° |
| 2026-05-06 12:05 | 50.18958 | 21.58692 | 38800 ft | 427 kts | 197° |
| 2026-05-06 12:05 | 50.16077 | 21.57533 | 38828 ft | 427 kts | 197° |
| 2026-05-06 12:06 | 50.10319 | 21.55221 | 38835 ft | 426 kts | 197° |
| 2026-05-06 12:06 | 50.04590 | 21.52927 | 38835 ft | 426 kts | 197° |
| 2026-05-06 12:07 | 49.98826 | 21.50624 | 38838 ft | 427 kts | 197° |
| 2026-05-06 12:07 | 49.93084 | 21.48336 | 38842 ft | 427 kts | 197° |
| 2026-05-06 12:08 | 49.87328 | 21.46049 | 38843 ft | 427 kts | 198° |
| 2026-05-06 12:08 | 49.81552 | 21.43758 | 38844 ft | 427 kts | 197° |
| 2026-05-06 12:09 | 49.75819 | 21.41491 | 38849 ft | 427 kts | 198° |
| 2026-05-06 12:09 | 49.70048 | 21.39213 | 38851 ft | 427 kts | 198° |
| 2026-05-06 12:10 | 49.64285 | 21.36946 | 38854 ft | 427 kts | 197° |
| 2026-05-06 12:10 | 49.58516 | 21.34681 | 38869 ft | 427 kts | 198° |
| 2026-05-06 12:11 | 49.52754 | 21.32423 | 38865 ft | 427 kts | 198° |
| 2026-05-06 12:11 | 49.47010 | 21.30179 | 38872 ft | 427 kts | 198° |
| 2026-05-06 12:12 | 49.41233 | 21.27927 | 38882 ft | 427 kts | 198° |
| 2026-05-06 12:12 | 49.35505 | 21.25699 | 38875 ft | 427 kts | 198° |
| 2026-05-06 12:13 | 49.29749 | 21.23467 | 38885 ft | 427 kts | 198° |
| 2026-05-06 12:13 | 49.23973 | 21.21231 | 38888 ft | 427 kts | 198° |
| 2026-05-06 12:14 | 49.18238 | 21.19018 | 38893 ft | 426 kts | 198° |
| 2026-05-06 12:14 | 49.12477 | 21.16799 | 38895 ft | 427 kts | 198° |
| 2026-05-06 12:15 | 49.06703 | 21.14581 | 38899 ft | 427 kts | 198° |
| 2026-05-06 12:15 | 49.00973 | 21.12385 | 38910 ft | 427 kts | 198° |
| 2026-05-06 12:16 | 48.95207 | 21.10180 | 38905 ft | 427 kts | 198° |
| 2026-05-06 12:16 | 48.89446 | 21.07982 | 38909 ft | 427 kts | 198° |
| 2026-05-06 12:17 | 48.83686 | 21.05790 | 38907 ft | 427 kts | 198° |
| 2026-05-06 12:17 | 48.77910 | 21.03597 | 38913 ft | 427 kts | 198° |
| 2026-05-06 12:18 | 48.72149 | 21.01415 | 38912 ft | 426 kts | 198° |
| 2026-05-06 12:18 | 48.66420 | 20.99250 | 38914 ft | 427 kts | 198° |
| 2026-05-06 12:19 | 48.60667 | 20.97082 | 38907 ft | 426 kts | 198° |
| 2026-05-06 12:19 | 48.54896 | 20.94911 | 38915 ft | 427 kts | 198° |
| 2026-05-06 12:20 | 48.49140 | 20.92751 | 38913 ft | 427 kts | 198° |
| 2026-05-06 12:20 | 48.43364 | 20.90589 | 38921 ft | 426 kts | 198° |
| 2026-05-06 12:21 | 48.37644 | 20.88453 | 38914 ft | 426 kts | 198° |
| 2026-05-06 12:21 | 48.31863 | 20.86299 | 38919 ft | 426 kts | 198° |
| 2026-05-06 12:22 | 48.26141 | 20.84172 | 38917 ft | 425 kts | 198° |
| 2026-05-06 12:22 | 48.20369 | 20.82031 | 38920 ft | 425 kts | 198° |
| 2026-05-06 12:23 | 48.14627 | 20.79907 | 38918 ft | 425 kts | 198° |
| 2026-05-06 12:23 | 48.08911 | 20.77797 | 38920 ft | 425 kts | 198° |
| 2026-05-06 12:24 | 48.03184 | 20.75688 | 38916 ft | 424 kts | 198° |
| 2026-05-06 12:24 | 47.97463 | 20.73585 | 38923 ft | 424 kts | 198° |
| 2026-05-06 12:25 | 47.91711 | 20.71476 | 38919 ft | 424 kts | 198° |
| 2026-05-06 12:25 | 47.85975 | 20.69378 | 38914 ft | 424 kts | 198° |
| 2026-05-06 12:26 | 47.80269 | 20.67295 | 38916 ft | 423 kts | 198° |
| 2026-05-06 12:26 | 47.74565 | 20.65218 | 38915 ft | 423 kts | 199° |
| 2026-05-06 12:27 | 47.68846 | 20.63141 | 38914 ft | 423 kts | 199° |
| 2026-05-06 12:27 | 47.63131 | 20.61069 | 38919 ft | 423 kts | 199° |
| 2026-05-06 12:28 | 47.57421 | 20.59004 | 38919 ft | 422 kts | 199° |
| 2026-05-06 12:28 | 47.51733 | 20.56951 | 38917 ft | 422 kts | 199° |
| 2026-05-06 12:29 | 47.45993 | 20.54885 | 38916 ft | 422 kts | 199° |
| 2026-05-06 12:29 | 47.40335 | 20.52852 | 38921 ft | 421 kts | 199° |
| 2026-05-06 12:30 | 47.34614 | 20.50801 | 38922 ft | 421 kts | 199° |
| 2026-05-06 12:30 | 47.31798 | 20.49793 | 38771 ft | 420 kts | 199° |
| 2026-05-06 12:30 | 47.28953 | 20.48776 | 38545 ft | 418 kts | 199° |
| 2026-05-06 12:31 | 47.26142 | 20.47773 | 38276 ft | 417 kts | 199° |
| 2026-05-06 12:31 | 47.23308 | 20.46762 | 38004 ft | 417 kts | 199° |
| 2026-05-06 12:31 | 47.20499 | 20.45762 | 37747 ft | 417 kts | 199° |
| 2026-05-06 12:31 | 47.18621 | 20.45093 | 37567 ft | 417 kts | 199° |
| 2026-05-06 12:32 | 47.15812 | 20.44094 | 37304 ft | 417 kts | 199° |
| 2026-05-06 12:32 | 47.12957 | 20.43080 | 37041 ft | 417 kts | 199° |
| 2026-05-06 12:32 | 47.10145 | 20.42082 | 36783 ft | 417 kts | 199° |
| 2026-05-06 12:32 | 47.07315 | 20.41079 | 36533 ft | 417 kts | 198° |
| 2026-05-06 12:33 | 47.04523 | 20.40090 | 36284 ft | 417 kts | 198° |
| 2026-05-06 12:33 | 47.01700 | 20.39091 | 36036 ft | 416 kts | 198° |
| 2026-05-06 12:33 | 46.98875 | 20.38093 | 35787 ft | 416 kts | 198° |
| 2026-05-06 12:33 | 46.96057 | 20.37099 | 35546 ft | 415 kts | 198° |
| 2026-05-06 12:34 | 46.93265 | 20.36114 | 35302 ft | 415 kts | 198° |
| 2026-05-06 12:34 | 46.90467 | 20.35129 | 35056 ft | 414 kts | 198° |
| 2026-05-06 12:34 | 46.87686 | 20.34150 | 34940 ft | 414 kts | 198° |
| 2026-05-06 12:34 | 46.84866 | 20.33159 | 34937 ft | 415 kts | 198° |